Time;durP1;ratioP1;P1;durP2;ratioP2;P2;SDS_P1;SDS_P2;PMS_P1;PMS_P2;Temp;Humidity;BMP_temperature;BMP_pressure;BME280_temperature;BME280_humidity;BME280_pressure;Samples;Min_cycle;Max_cycle;Signal;HPM_P1;HPM_P2
2024/04/03 00:01:31;;;;;;;0.80;0.80;;;17.70;55.40;;;;;;6081800;23;20183;-82
2024/04/03 00:03:58;;;;;;;2.20;0.90;;;17.70;55.60;;;;;;6106459;23;20591;-83
2024/04/03 00:06:24;;;;;;;0.80;0.80;;;17.60;55.50;;;;;;6106836;23;20158;-82
2024/04/03 00:08:55;;;;;;;1.13;0.90;;;17.60;55.50;;;;;;6106515;23;20152;-82
2024/04/03 00:11:21;;;;;;;1.02;0.80;;;17.60;55.50;;;;;;6129676;23;20155;-82
2024/04/03 00:13:48;;;;;;;1.75;1.08;;;17.60;55.50;;;;;;6155502;23;20194;-82
2024/04/03 00:16:14;;;;;;;0.77;0.77;;;17.60;55.40;;;;;;6130731;23;20132;-83
2024/04/03 00:18:41;;;;;;;0.90;0.90;;;17.70;55.20;;;;;;6130703;23;20139;-83
2024/04/03 00:21:07;;;;;;;1.48;0.80;;;17.70;55.30;;;;;;6106817;23;20178;-83
2024/04/03 00:23:33;;;;;;;1.40;0.80;;;17.60;55.50;;;;;;6131081;23;20148;-82
2024/04/03 00:26:01;;;;;;;0.98;0.70;;;17.60;55.60;;;;;;6130739;23;20534;-82
2024/04/03 00:28:29;;;;;;;0.65;0.65;;;17.70;55.50;;;;;;6106602;23;20148;-83
2024/04/03 00:31:03;;;;;;;1.50;0.98;;;17.60;55.50;;;;;;6106497;23;20543;-82
2024/04/03 00:33:28;;;;;;;1.45;0.88;;;17.60;55.50;;;;;;6105156;23;20151;-82
2024/04/03 00:35:57;;;;;;;0.85;0.75;;;17.60;55.50;;;;;;6130774;23;20136;-82
2024/04/03 00:38:25;;;;;;;0.70;0.70;;;17.50;55.50;;;;;;6106503;23;20158;-82
2024/04/03 00:41:03;;;;;;;0.80;0.73;;;17.60;55.60;;;;;;6106420;23;20155;-83
2024/04/03 00:43:34;;;;;;;1.13;0.93;;;17.60;55.50;;;;;;6105386;23;20202;-83
2024/04/03 00:46:01;;;;;;;1.25;0.98;;;17.60;55.60;;;;;;6105940;23;20579;-82
2024/04/03 00:48:29;;;;;;;1.10;1.00;;;17.60;55.50;;;;;;6106110;23;20166;-82
2024/04/03 00:50:58;;;;;;;1.63;1.00;;;17.60;55.70;;;;;;6130844;23;20182;-82
2024/04/03 00:53:24;;;;;;;1.60;0.98;;;17.60;55.50;;;;;;6093514;23;20157;-81
2024/04/03 00:55:50;;;;;;;1.58;0.80;;;17.60;55.40;;;;;;6150415;23;20119;-82
2024/04/03 00:58:16;;;;;;;0.90;0.80;;;17.60;55.50;;;;;;6144371;23;20182;-82
2024/04/03 01:00:42;;;;;;;0.80;0.80;;;17.60;55.40;;;;;;6130955;23;20139;-82
2024/04/03 01:03:09;;;;;;;0.90;0.80;;;17.60;55.30;;;;;;6155319;23;20190;-83
2024/04/03 01:05:35;;;;;;;0.98;0.88;;;17.50;55.50;;;;;;6154867;23;20136;-82
2024/04/03 01:08:02;;;;;;;1.63;0.90;;;17.60;55.50;;;;;;6106234;23;20162;-82
2024/04/03 01:10:29;;;;;;;1.48;1.10;;;17.60;55.50;;;;;;6130587;23;20162;-82
2024/04/03 01:13:01;;;;;;;1.73;0.70;;;17.60;55.60;;;;;;6131014;23;20136;-82
2024/04/03 01:15:31;;;;;;;2.17;0.90;;;17.60;55.50;;;;;;6081666;23;20159;-83
2024/04/03 01:17:58;;;;;;;1.95;0.63;;;17.60;55.50;;;;;;6080989;23;20258;-82
2024/04/03 01:20:24;;;;;;;1.25;1.00;;;17.50;55.50;;;;;;6130692;23;20136;-82
2024/04/03 01:22:52;;;;;;;0.80;0.80;;;17.50;55.40;;;;;;6106426;23;20191;-82
2024/04/03 01:25:18;;;;;;;0.80;0.80;;;17.50;55.60;;;;;;6081506;23;20151;-82
2024/04/03 01:27:44;;;;;;;1.30;0.82;;;17.50;55.50;;;;;;6130554;23;20128;-83
2024/04/03 01:30:10;;;;;;;0.98;0.80;;;17.50;55.60;;;;;;6130893;23;20520;-82
2024/04/03 01:32:41;;;;;;;1.45;0.85;;;17.50;55.50;;;;;;6130476;23;20574;-82
2024/04/03 01:35:08;;;;;;;1.25;0.80;;;17.50;55.50;;;;;;6129622;23;20206;-83
2024/04/03 01:37:34;;;;;;;1.58;0.70;;;17.50;55.50;;;;;;6105753;23;20162;-83
2024/04/03 01:40:03;;;;;;;0.77;0.75;;;17.50;55.40;;;;;;6130032;23;20155;-83
2024/04/03 01:42:30;;;;;;;0.98;0.85;;;17.60;55.50;;;;;;6129628;23;20626;-82
2024/04/03 01:45:00;;;;;;;1.42;0.98;;;17.50;55.60;;;;;;6154837;23;20148;-82
2024/04/03 01:47:25;;;;;;;0.73;0.73;;;17.60;55.40;;;;;;6104984;23;20464;-83
2024/04/03 01:49:53;;;;;;;1.95;0.77;;;17.50;55.40;;;;;;6105883;23;20162;-83
2024/04/03 01:52:20;;;;;;;1.20;0.70;;;17.60;55.60;;;;;;6105950;23;20162;-82
2024/04/03 01:54:48;;;;;;;1.23;0.95;;;17.50;55.50;;;;;;6105401;23;20242;-82
2024/04/03 01:57:14;;;;;;;0.70;0.70;;;17.50;55.30;;;;;;6130219;23;20135;-82
2024/04/03 01:59:40;;;;;;;2.15;0.90;;;17.50;55.20;;;;;;6105860;23;20205;-83
2024/04/03 02:02:06;;;;;;;1.05;0.88;;;17.50;55.30;;;;;;6154889;23;20214;-83
2024/04/03 02:04:32;;;;;;;0.90;0.90;;;17.50;55.50;;;;;;6106044;23;20527;-82
2024/04/03 02:07:00;;;;;;;0.98;0.75;;;17.50;55.60;;;;;;6130598;23;20151;-83
2024/04/03 02:09:26;;;;;;;1.08;1.00;;;17.60;55.70;;;;;;6105900;23;20151;-82
2024/04/03 02:11:52;;;;;;;0.80;0.80;;;17.50;55.60;;;;;;6130468;23;20139;-82
2024/04/03 02:14:18;;;;;;;1.00;0.90;;;17.50;55.20;;;;;;6130442;23;20456;-81
2024/04/03 02:16:46;;;;;;;0.90;0.80;;;17.50;55.60;;;;;;6129994;23;20142;-82
2024/04/03 02:19:13;;;;;;;0.93;0.82;;;17.50;55.60;;;;;;6130306;23;20144;-82
2024/04/03 02:21:39;;;;;;;1.25;1.08;;;17.60;55.50;;;;;;6105801;23;20222;-81
2024/04/03 02:24:07;;;;;;;2.20;0.90;;;17.50;55.30;;;;;;6105697;23;20147;-81
2024/04/03 02:26:34;;;;;;;0.77;0.77;;;17.50;55.20;;;;;;6080642;23;20159;-81
2024/04/03 02:28:59;;;;;;;2.00;0.90;;;17.50;55.50;;;;;;6154587;23;20143;-82
2024/04/03 02:31:28;;;;;;;0.98;0.82;;;17.50;55.70;;;;;;6105446;23;20277;-83
2024/04/03 02:33:54;;;;;;;0.82;0.73;;;17.40;55.60;;;;;;6130207;23;20298;-81
2024/04/03 02:36:20;;;;;;;0.80;0.80;;;17.50;55.70;;;;;;6130249;23;20483;-82
2024/04/03 02:38:48;;;;;;;1.40;0.88;;;17.50;55.70;;;;;;6105643;23;20153;-81
2024/04/03 02:41:15;;;;;;;1.00;0.85;;;17.50;55.60;;;;;;6105738;23;20223;-81
2024/04/03 02:43:47;;;;;;;0.95;0.80;;;17.50;55.50;;;;;;6154119;23;20508;-82
2024/04/03 02:46:14;;;;;;;1.00;0.90;;;17.50;55.60;;;;;;6129236;23;20158;-81
2024/04/03 02:48:40;;;;;;;1.10;0.88;;;17.50;55.50;;;;;;6129875;23;20146;-82
2024/04/03 02:51:09;;;;;;;0.90;0.88;;;17.50;55.50;;;;;;6131190;23;20159;-83
2024/04/03 02:53:35;;;;;;;0.80;0.80;;;17.50;55.40;;;;;;6107858;23;20159;-82
2024/04/03 02:56:05;;;;;;;1.35;0.90;;;17.50;55.50;;;;;;6156341;23;20186;-81
2024/04/03 02:58:32;;;;;;;1.90;1.00;;;17.50;55.70;;;;;;6083194;23;20169;-82
2024/04/03 03:01:05;;;;;;;1.10;0.90;;;17.40;55.60;;;;;;6107681;23;20538;-81
2024/04/03 03:03:31;;;;;;;1.55;1.00;;;17.40;55.60;;;;;;6131948;23;20241;-82
2024/04/03 03:06:00;;;;;;;0.82;0.77;;;17.40;55.60;;;;;;6131755;23;20580;-81
2024/04/03 03:08:26;;;;;;;1.48;0.90;;;17.40;55.70;;;;;;6107416;23;20159;-82
2024/04/03 03:10:52;;;;;;;1.42;0.90;;;17.40;55.50;;;;;;6108003;23;20155;-81
2024/04/03 03:13:19;;;;;;;1.02;0.93;;;17.40;55.70;;;;;;6107278;23;20614;-82
2024/04/03 03:15:54;;;;;;;1.95;0.90;;;17.40;55.60;;;;;;6131680;23;20279;-82
2024/04/03 03:18:26;;;;;;;1.75;1.02;;;17.40;55.40;;;;;;6131804;23;20139;-82
2024/04/03 03:20:54;;;;;;;1.17;0.80;;;17.40;55.60;;;;;;6108741;23;20160;-82
2024/04/03 03:23:20;;;;;;;0.70;0.70;;;17.50;55.70;;;;;;6132119;23;20554;-81
2024/04/03 03:25:49;;;;;;;1.13;1.00;;;17.40;55.40;;;;;;6107678;23;20226;-81
2024/04/03 03:28:15;;;;;;;1.17;0.90;;;17.40;55.60;;;;;;6131740;23;20131;-82
2024/04/03 03:30:52;;;;;;;1.02;0.80;;;17.40;55.70;;;;;;6107316;23;20214;-81
2024/04/03 03:33:18;;;;;;;0.88;0.85;;;17.40;55.60;;;;;;6132152;23;20658;-81
2024/04/03 03:35:51;;;;;;;0.90;0.90;;;17.40;55.60;;;;;;6137089;23;20162;-82
2024/04/03 03:38:17;;;;;;;0.88;0.85;;;17.40;55.50;;;;;;6137809;23;20166;-82
2024/04/03 03:40:44;;;;;;;1.38;0.93;;;17.40;55.80;;;;;;6112784;23;20195;-82
2024/04/03 03:43:10;;;;;;;0.80;0.80;;;17.40;55.50;;;;;;6112858;23;20222;-82
2024/04/03 03:45:45;;;;;;;1.45;0.90;;;17.40;55.40;;;;;;6112954;23;20580;-82
2024/04/03 03:48:11;;;;;;;1.33;0.90;;;17.40;55.40;;;;;;6112738;23;20230;-81
2024/04/03 03:53:21;;;;;;;1.73;1.02;;;17.40;55.70;;;;;;6162228;23;20139;-82
2024/04/03 03:55:46;;;;;;;0.90;0.90;;;17.40;55.70;;;;;;6136330;23;20166;-82
2024/04/03 03:58:12;;;;;;;1.65;1.00;;;17.50;55.80;;;;;;6112938;23;20210;-82
2024/04/03 04:00:40;;;;;;;1.35;1.00;;;17.40;55.70;;;;;;6132499;23;20242;-83
2024/04/03 04:03:06;;;;;;;1.17;0.95;;;17.40;55.80;;;;;;6106683;23;20179;-82
2024/04/03 04:05:34;;;;;;;1.42;0.90;;;17.40;55.80;;;;;;6107170;23;20151;-83
2024/04/03 04:08:03;;;;;;;1.27;0.82;;;17.40;55.60;;;;;;6156036;23;20124;-83
2024/04/03 04:10:34;;;;;;;1.55;1.10;;;17.40;55.70;;;;;;6130539;23;20155;-82
2024/04/03 04:13:01;;;;;;;0.82;0.82;;;17.40;55.60;;;;;;6131436;23;20159;-82
2024/04/03 04:15:27;;;;;;;0.80;0.70;;;17.40;55.50;;;;;;6106744;23;20155;-82
2024/04/03 04:17:53;;;;;;;1.23;0.80;;;17.40;55.70;;;;;;6106744;23;20239;-82
2024/04/03 04:20:21;;;;;;;1.35;1.00;;;17.40;55.50;;;;;;6130919;23;20179;-82
2024/04/03 04:22:47;;;;;;;0.85;0.82;;;17.40;55.50;;;;;;6106640;23;20199;-82
2024/04/03 04:25:13;;;;;;;1.20;1.10;;;17.40;55.60;;;;;;6130721;23;20155;-83
2024/04/03 04:27:39;;;;;;;1.63;1.05;;;17.40;55.50;;;;;;6130737;23;20158;-82
2024/04/03 04:30:07;;;;;;;0.90;0.88;;;17.40;55.60;;;;;;6130940;23;20464;-82
2024/04/03 04:32:35;;;;;;;1.10;1.00;;;17.40;55.60;;;;;;6131103;23;20132;-82
2024/04/03 04:35:06;;;;;;;1.38;1.00;;;17.40;55.50;;;;;;6131036;23;20178;-82
2024/04/03 04:37:32;;;;;;;1.17;0.88;;;17.40;55.70;;;;;;6105548;23;20179;-82
2024/04/03 04:39:58;;;;;;;1.55;1.05;;;17.40;55.50;;;;;;6106466;23;20208;-82
2024/04/03 04:42:23;;;;;;;0.90;0.90;;;17.50;56.10;;;;;;6104597;23;20673;-82
2024/04/03 04:44:49;;;;;;;0.98;0.95;;;17.40;55.70;;;;;;6130392;23;20159;-82
2024/04/03 04:47:15;;;;;;;1.80;1.00;;;17.40;55.70;;;;;;6130961;23;20147;-82
2024/04/03 04:49:41;;;;;;;1.13;0.93;;;17.40;55.60;;;;;;6130818;23;20226;-82
2024/04/03 04:52:07;;;;;;;1.70;1.23;;;17.40;55.60;;;;;;6130713;23;20140;-82
2024/04/03 04:54:32;;;;;;;1.02;0.98;;;17.40;55.40;;;;;;6129937;23;20509;-82
2024/04/03 04:57:01;;;;;;;1.13;1.00;;;17.40;55.60;;;;;;6106579;23;20183;-82
2024/04/03 04:59:26;;;;;;;1.35;1.00;;;17.40;55.60;;;;;;6131609;23;20132;-82
2024/04/03 05:01:52;;;;;;;0.80;0.80;;;17.40;55.40;;;;;;6155626;23;20167;-82
2024/04/03 05:04:19;;;;;;;0.95;0.85;;;17.40;55.40;;;;;;6156589;23;20142;-82
2024/04/03 05:06:45;;;;;;;2.90;1.17;;;17.40;55.60;;;;;;6130827;23;20166;-82
2024/04/03 05:09:12;;;;;;;1.13;0.80;;;17.40;55.30;;;;;;6130687;23;20491;-82
2024/04/03 05:11:38;;;;;;;1.10;0.95;;;17.30;55.40;;;;;;6130343;23;20156;-82
2024/04/03 05:14:04;;;;;;;1.52;1.00;;;17.40;55.50;;;;;;6106075;23;20152;-82
2024/04/03 05:16:31;;;;;;;2.25;1.10;;;17.40;55.50;;;;;;6130407;23;20162;-82
2024/04/03 05:18:59;;;;;;;1.50;1.27;;;17.30;55.40;;;;;;6155339;23;20249;-82
2024/04/03 05:21:29;;;;;;;1.83;0.90;;;17.40;55.50;;;;;;6130873;23;20151;-82
2024/04/03 05:23:55;;;;;;;0.90;0.90;;;17.40;55.40;;;;;;6130940;23;20151;-82
2024/04/03 05:26:25;;;;;;;1.25;0.98;;;17.40;55.60;;;;;;6131935;23;20146;-81
2024/04/03 05:28:52;;;;;;;1.30;1.10;;;17.40;55.40;;;;;;6104104;23;20152;-82
2024/04/03 05:31:18;;;;;;;1.05;0.80;;;17.40;55.30;;;;;;6129247;23;20151;-82
2024/04/03 05:33:47;;;;;;;1.48;1.00;;;17.40;55.40;;;;;;6104670;23;20238;-81
2024/04/03 05:36:12;;;;;;;0.77;0.77;;;17.40;55.40;;;;;;6079356;23;20227;-81
2024/04/03 05:38:38;;;;;;;0.82;0.80;;;17.40;55.30;;;;;;6129238;23;20213;-81
2024/04/03 05:41:07;;;;;;;1.00;0.88;;;17.40;55.30;;;;;;6128890;23;20542;-81
2024/04/03 05:43:33;;;;;;;0.85;0.80;;;17.40;55.40;;;;;;6130060;23;20649;-82
2024/04/03 05:45:59;;;;;;;1.00;0.80;;;17.40;55.60;;;;;;6106168;23;20187;-82
2024/04/03 05:48:27;;;;;;;1.90;0.80;;;17.40;55.40;;;;;;6106319;23;20178;-82
2024/04/03 05:51:06;;;;;;;1.20;1.10;;;17.40;55.20;;;;;;6130993;23;20159;-82
2024/04/03 05:53:33;;;;;;;1.48;0.85;;;17.40;55.30;;;;;;6156978;23;20162;-82
2024/04/03 05:56:00;;;;;;;1.27;1.00;;;17.40;55.30;;;;;;6157353;23;20210;-81
2024/04/03 05:58:27;;;;;;;0.80;0.80;;;17.40;55.40;;;;;;6158381;23;20135;-82
2024/04/03 06:00:54;;;;;;;1.20;0.80;;;17.50;55.30;;;;;;6108402;23;20499;-81
2024/04/03 06:03:20;;;;;;;1.08;0.98;;;17.40;55.40;;;;;;6133151;23;20751;-81
2024/04/03 06:05:52;;;;;;;1.15;1.00;;;17.40;55.50;;;;;;6134164;23;20132;-82
2024/04/03 06:08:18;;;;;;;2.60;1.10;;;17.40;55.40;;;;;;6136020;23;20476;-81
2024/04/03 06:10:47;;;;;;;2.03;0.90;;;17.40;54.90;;;;;;6135172;23;20187;-82
2024/04/03 06:13:12;;;;;;;1.08;0.98;;;17.40;54.70;;;;;;6110542;23;20158;-82
2024/04/03 06:15:42;;;;;;;0.95;0.85;;;17.50;55.00;;;;;;6134852;23;20132;-82
2024/04/03 06:18:08;;;;;;;1.25;1.00;;;17.50;54.70;;;;;;6085926;23;20163;-82
2024/04/03 06:20:35;;;;;;;1.63;0.90;;;17.60;54.50;;;;;;6110200;23;20613;-82
2024/04/03 06:23:02;;;;;;;1.10;1.00;;;17.50;54.60;;;;;;6135286;23;20167;-81
2024/04/03 06:25:28;;;;;;;1.15;0.80;;;17.60;54.70;;;;;;6134330;23;20155;-81
2024/04/03 06:27:58;;;;;;;1.65;0.80;;;17.60;54.40;;;;;;6134618;23;20139;-81
2024/04/03 06:30:25;;;;;;;0.77;0.77;;;17.60;54.60;;;;;;6086089;23;20158;-82
2024/04/03 06:32:54;;;;;;;1.02;0.85;;;17.60;54.20;;;;;;6111155;23;20163;-82
2024/04/03 06:35:24;;;;;;;1.30;1.00;;;17.60;54.40;;;;;;6161911;23;20144;-81
2024/04/03 06:37:53;;;;;;;0.85;0.80;;;17.60;54.40;;;;;;6136331;23;20222;-82
2024/04/03 06:40:21;;;;;;;0.90;0.80;;;17.60;54.40;;;;;;6085934;23;20606;-81
2024/04/03 06:42:46;;;;;;;1.35;0.90;;;17.60;54.50;;;;;;6111422;23;20195;-81
2024/04/03 06:45:12;;;;;;;1.08;0.90;;;17.50;54.10;;;;;;6135957;23;20151;-82
2024/04/03 06:47:42;;;;;;;0.98;0.80;;;17.50;54.50;;;;;;6111212;23;20606;-82
2024/04/03 06:50:10;;;;;;;0.98;0.82;;;17.60;54.20;;;;;;6086098;23;20165;-82
2024/04/03 06:52:36;;;;;;;0.70;0.70;;;17.60;54.40;;;;;;6134365;23;20218;-81
2024/04/03 06:55:03;;;;;;;1.08;0.85;;;17.60;54.40;;;;;;6134271;23;20135;-82
2024/04/03 06:57:31;;;;;;;0.80;0.73;;;17.60;54.10;;;;;;6135014;23;20178;-81
2024/04/03 06:59:58;;;;;;;0.77;0.75;;;17.50;54.40;;;;;;6111966;23;20175;-81
2024/04/03 07:02:29;;;;;;;0.77;0.77;;;17.60;54.20;;;;;;6113056;23;20175;-82
2024/04/03 07:04:57;;;;;;;1.20;1.00;;;17.60;54.10;;;;;;6159472;23;20629;-82
2024/04/03 07:07:25;;;;;;;0.73;0.60;;;17.60;54.20;;;;;;6136489;23;20143;-82
2024/04/03 07:09:52;;;;;;;1.30;1.10;;;17.60;53.80;;;;;;6137049;23;20187;-82
2024/04/03 07:12:22;;;;;;;1.60;0.82;;;17.60;54.00;;;;;;6138071;23;20160;-82
2024/04/03 07:14:50;;;;;;;1.95;0.90;;;17.60;53.90;;;;;;6162194;23;20135;-81
2024/04/03 07:17:16;;;;;;;1.08;0.80;;;17.60;54.10;;;;;;6137555;23;20132;-81
2024/04/03 07:19:43;;;;;;;1.20;1.00;;;17.60;53.60;;;;;;6136438;23;20201;-81
2024/04/03 07:22:12;;;;;;;1.25;1.10;;;17.60;53.90;;;;;;6111879;23;20607;-81
2024/04/03 07:24:37;;;;;;;0.70;0.70;;;17.60;54.30;;;;;;6161949;23;20179;-81
2024/04/03 07:27:04;;;;;;;1.15;0.80;;;17.50;54.40;;;;;;6139487;23;20135;-81
2024/04/03 07:29:31;;;;;;;0.95;0.90;;;17.60;54.00;;;;;;6165412;23;20139;-81
2024/04/03 07:31:57;;;;;;;1.05;0.95;;;17.60;54.20;;;;;;6164106;23;20143;-80
2024/04/03 07:34:28;;;;;;;1.13;1.08;;;17.60;54.00;;;;;;6163347;23;20246;-81
2024/04/03 07:36:56;;;;;;;1.42;0.90;;;17.60;54.00;;;;;;6114487;23;20223;-82
2024/04/03 07:39:25;;;;;;;1.05;0.80;;;17.60;54.50;;;;;;6115865;23;20155;-83
2024/04/03 07:41:51;;;;;;;1.13;0.98;;;17.60;54.40;;;;;;6141407;23;20179;-82
2024/04/03 07:44:21;;;;;;;0.77;0.77;;;17.60;54.40;;;;;;6091690;23;20152;-81
2024/04/03 07:46:49;;;;;;;0.85;0.82;;;17.50;54.60;;;;;;6092712;23;20152;-81
2024/04/03 07:49:14;;;;;;;0.70;0.70;;;17.60;54.30;;;;;;6092871;23;20148;-82
2024/04/03 07:51:41;;;;;;;1.02;0.95;;;17.60;54.40;;;;;;6137984;23;20186;-82
2024/04/03 07:54:07;;;;;;;0.73;0.63;;;17.60;54.70;;;;;;6114199;23;20147;-81
2024/04/03 07:56:35;;;;;;;0.95;0.80;;;17.60;54.30;;;;;;6089934;23;20157;-83
2024/04/03 07:59:02;;;;;;;4.43;1.30;;;17.60;54.00;;;;;;6094079;23;20174;-82
2024/04/03 08:01:28;;;;;;;12.35;1.67;;;17.60;54.10;;;;;;6117111;23;20158;-82
2024/04/03 08:03:55;;;;;;;5.28;1.40;;;17.60;54.20;;;;;;6115461;23;20148;-81
2024/04/03 08:06:24;;;;;;;12.98;2.03;;;17.60;54.10;;;;;;6114235;23;20157;-82
2024/04/03 08:08:52;;;;;;;20.33;2.70;;;17.60;54.20;;;;;;6089747;23;20168;-81
2024/04/03 08:11:18;;;;;;;45.40;4.57;;;17.60;54.40;;;;;;6139374;23;20147;-81
2024/04/03 08:13:45;;;;;;;24.25;2.40;;;17.60;54.20;;;;;;6141417;23;20165;-81
2024/04/03 08:16:11;;;;;;;9.25;1.60;;;17.60;54.30;;;;;;6141099;23;20206;-81
2024/04/03 08:18:38;;;;;;;16.38;1.40;;;17.60;54.10;;;;;;6120082;23;20147;-81
2024/04/03 08:21:10;;;;;;;3.63;1.10;;;17.60;54.10;;;;;;6121023;23;20211;-81
2024/04/03 08:23:36;;;;;;;4.10;1.10;;;17.70;54.10;;;;;;6120549;23;20183;-81
2024/04/03 08:26:08;;;;;;;6.25;1.20;;;17.60;54.00;;;;;;6096003;23;20626;-81
2024/04/03 08:28:37;;;;;;;4.20;1.10;;;17.70;54.50;;;;;;6116491;23;20160;-82
2024/04/03 08:31:03;;;;;;;2.33;1.10;;;17.70;54.30;;;;;;6093390;23;20143;-82
2024/04/03 08:33:32;;;;;;;2.67;0.80;;;17.60;54.30;;;;;;6094413;23;20155;-81
2024/04/03 08:36:01;;;;;;;1.45;0.90;;;17.60;54.60;;;;;;6093683;23;20147;-81
2024/04/03 08:38:27;;;;;;;2.85;1.00;;;17.70;54.10;;;;;;6095925;23;20147;-82
2024/04/03 08:40:55;;;;;;;1.55;0.88;;;17.70;54.10;;;;;;6093235;23;20155;-82
2024/04/03 08:43:23;;;;;;;2.80;0.90;;;17.60;53.80;;;;;;6097772;23;20204;-81
2024/04/03 08:45:49;;;;;;;3.13;1.00;;;17.60;54.50;;;;;;6063515;23;20144;-81
2024/04/03 08:48:20;;;;;;;4.90;1.00;;;17.60;54.40;;;;;;6087011;23;20432;-82
2024/04/03 08:50:46;;;;;;;8.57;0.95;;;17.70;54.10;;;;;;6063139;23;20480;-82
2024/04/03 08:53:16;;;;;;;5.00;1.08;;;17.60;54.10;;;;;;6061020;23;20480;-82
2024/04/03 08:55:42;;;;;;;4.35;1.10;;;17.70;54.00;;;;;;6084279;23;20160;-82
2024/04/03 08:58:08;;;;;;;5.55;1.15;;;17.70;54.10;;;;;;6020885;23;20162;-82
2024/04/03 09:00:36;;;;;;;3.60;1.10;;;17.70;54.10;;;;;;6022178;23;20154;-81
2024/04/03 09:03:02;;;;;;;3.92;1.02;;;17.70;52.80;;;;;;6021545;23;20201;-83
2024/04/03 09:05:29;;;;;;;4.55;1.05;;;17.70;54.00;;;;;;6019752;23;20590;-82
2024/04/03 09:08:06;;;;;;;5.13;0.90;;;17.70;53.60;;;;;;5972019;23;20183;-82
2024/04/03 09:10:35;;;;;;;3.58;1.15;;;17.70;53.70;;;;;;6020363;23;20486;-82
2024/04/03 09:13:05;;;;;;;1.90;1.00;;;17.70;53.70;;;;;;5973562;23;20244;-81
2024/04/03 09:15:32;;;;;;;4.75;0.90;;;17.70;53.60;;;;;;5970977;23;20146;-81
2024/04/03 09:18:03;;;;;;;2.15;0.95;;;17.70;54.00;;;;;;5972347;23;20158;-81
2024/04/03 09:20:30;;;;;;;2.70;1.05;;;17.80;53.50;;;;;;5995801;23;20150;-81
2024/04/03 09:22:56;;;;;;;1.65;0.95;;;17.70;53.70;;;;;;5993989;23;20186;-82
2024/04/03 09:25:28;;;;;;;3.10;0.98;;;17.70;53.30;;;;;;5994407;23;20204;-82
2024/04/03 09:28:05;;;;;;;2.28;0.80;;;17.80;53.30;;;;;;5993521;23;20146;-82
2024/04/03 09:30:33;;;;;;;2.92;0.93;;;17.80;53.30;;;;;;6058738;23;20159;-81
2024/04/03 09:33:02;;;;;;;4.75;1.20;;;17.70;53.90;;;;;;6081268;23;20459;-82
2024/04/03 09:35:32;;;;;;;3.70;0.77;;;17.70;53.90;;;;;;6009638;23;20156;-82
2024/04/03 09:37:59;;;;;;;2.30;0.80;;;17.80;53.20;;;;;;6082458;23;20156;-81
2024/04/03 09:40:27;;;;;;;3.22;1.10;;;17.80;54.00;;;;;;6083890;23;20368;-82
2024/04/03 09:42:58;;;;;;;3.53;0.85;;;17.70;52.80;;;;;;6099937;23;20195;-82
2024/04/03 09:45:25;;;;;;;1.08;0.80;;;17.70;53.00;;;;;;6114787;23;20213;-82
2024/04/03 09:48:06;;;;;;;2.67;1.02;;;17.80;53.60;;;;;;6137733;23;20171;-82
2024/04/03 09:50:46;;;;;;;2.55;0.90;;;17.70;53.70;;;;;;6133168;23;20147;-82
2024/04/03 09:53:14;;;;;;;3.50;1.02;;;17.80;52.80;;;;;;6156774;23;20694;-82
2024/04/03 09:55:42;;;;;;;2.95;0.60;;;17.80;53.40;;;;;;6156966;23;20155;-82
2024/04/03 09:58:12;;;;;;;2.70;0.88;;;17.70;53.70;;;;;;6109299;23;20222;-82
2024/04/03 10:00:39;;;;;;;3.28;1.00;;;17.70;53.30;;;;;;6109336;23;20147;-82
2024/04/03 10:03:19;;;;;;;2.33;0.90;;;17.70;53.40;;;;;;6133562;23;20695;-82
2024/04/03 10:05:48;;;;;;;1.73;0.70;;;17.70;52.80;;;;;;6090740;23;20175;-82
2024/04/03 10:08:34;;;;;;;1.42;0.88;;;17.80;53.60;;;;;;6111180;23;20151;-82
2024/04/03 10:11:17;;;;;;;1.75;0.75;;;17.80;52.80;;;;;;6134219;23;20222;-81
2024/04/03 10:13:46;;;;;;;5.40;1.10;;;17.80;53.30;;;;;;6158201;23;20229;-82
2024/04/03 10:16:14;;;;;;;3.25;0.90;;;17.80;53.70;;;;;;6135137;23;20147;-82
2024/04/03 10:18:43;;;;;;;3.15;0.93;;;17.70;53.80;;;;;;6157991;23;20143;-81
2024/04/03 10:21:09;;;;;;;2.67;0.63;;;17.80;53.50;;;;;;6134405;23;20143;-82
2024/04/03 10:23:45;;;;;;;1.52;0.70;;;17.80;52.50;;;;;;6136497;23;20159;-82
2024/04/03 10:26:16;;;;;;;5.75;1.00;;;17.70;53.80;;;;;;6162400;23;20150;-86
2024/04/03 10:28:46;;;;;;;3.40;1.00;;;17.80;53.50;;;;;;6138922;23;20136;-82
2024/04/03 10:31:18;;;;;;;2.42;0.93;;;17.70;54.10;;;;;;6114857;23;20144;-82
2024/04/03 10:33:48;;;;;;;1.15;0.90;;;17.70;53.50;;;;;;6113411;23;20155;-82
2024/04/03 10:36:16;;;;;;;1.73;0.82;;;17.70;53.40;;;;;;6116254;23;20175;-82
2024/04/03 10:38:42;;;;;;;4.78;0.82;;;17.70;52.60;;;;;;6115435;23;20155;-82
2024/04/03 10:41:12;;;;;;;2.25;0.80;;;17.70;53.30;;;;;;6114716;23;20162;-83
2024/04/03 10:43:38;;;;;;;1.20;0.88;;;17.70;53.30;;;;;;6141771;23;20199;-82
2024/04/03 10:46:13;;;;;;;2.33;0.80;;;17.80;52.70;;;;;;6118162;23;20158;-82
2024/04/03 10:48:41;;;;;;;1.52;0.80;;;17.80;52.80;;;;;;6144449;23;20151;-82
2024/04/03 10:51:07;;;;;;;0.98;0.60;;;17.80;53.40;;;;;;6115342;23;20254;-82
2024/04/03 10:53:34;;;;;;;2.03;0.80;;;17.80;52.80;;;;;;6138862;23;20579;-82
2024/04/03 10:56:00;;;;;;;1.38;0.75;;;17.90;53.10;;;;;;6115136;23;20162;-82
2024/04/03 10:58:27;;;;;;;1.48;0.82;;;17.80;53.00;;;;;;6141868;23;20171;-82
2024/04/03 11:00:53;;;;;;;2.38;0.70;;;17.90;53.50;;;;;;6142060;23;20478;-82
2024/04/03 11:03:22;;;;;;;1.48;0.80;;;17.80;53.40;;;;;;6115726;23;20175;-82
2024/04/03 11:05:48;;;;;;;3.60;0.98;;;17.80;53.30;;;;;;6139056;23;20198;-82
2024/04/03 11:08:15;;;;;;;2.13;0.85;;;17.80;53.20;;;;;;6116361;23;20152;-82
2024/04/03 11:10:43;;;;;;;2.15;1.00;;;17.80;52.80;;;;;;6118021;23;20151;-82
2024/04/03 11:13:10;;;;;;;1.83;0.65;;;17.80;53.90;;;;;;6119641;23;20162;-82
2024/04/03 11:15:36;;;;;;;1.52;0.60;;;17.80;53.00;;;;;;6144221;23;20163;-82
2024/04/03 11:18:04;;;;;;;1.35;0.90;;;17.80;52.60;;;;;;6120460;23;20147;-82
2024/04/03 11:20:32;;;;;;;0.85;0.77;;;17.80;53.60;;;;;;6146532;23;20137;-82
2024/04/03 11:23:06;;;;;;;3.03;0.95;;;17.80;53.30;;;;;;6124538;23;20230;-82
2024/04/03 11:25:52;;;;;;;0.93;0.70;;;17.70;51.60;;;;;;6149253;23;20157;-81
2024/04/03 11:28:18;;;;;;;1.20;0.68;;;17.80;51.40;;;;;;6174125;23;20140;-82
2024/04/03 11:30:45;;;;;;;1.75;0.70;;;17.90;52.10;;;;;;6120302;23;20158;-83
2024/04/03 11:33:12;;;;;;;0.82;0.68;;;17.90;53.10;;;;;;6145282;23;20166;-82
2024/04/03 11:36:34;;;;;;;3.05;0.88;;;17.90;52.90;;;;;;6144381;23;20166;-81
2024/04/03 11:39:04;;;;;;;1.70;0.80;;;17.90;52.30;;;;;;6109020;23;20157;-81
2024/04/03 11:41:30;;;;;;;1.25;0.80;;;17.90;52.60;;;;;;6104171;23;20587;-82
2024/04/03 11:43:58;;;;;;;2.28;0.75;;;18.00;52.80;;;;;;6112558;23;20211;-82
2024/04/03 11:46:25;;;;;;;1.65;0.80;;;17.90;53.20;;;;;;6089401;23;20600;-82
2024/04/03 11:48:54;;;;;;;1.00;0.70;;;17.90;53.10;;;;;;6088850;23;20542;-81
2024/04/03 11:51:22;;;;;;;3.03;0.63;;;17.90;52.70;;;;;;6114520;23;20137;-81
2024/04/03 11:53:49;;;;;;;2.05;0.70;;;17.90;52.60;;;;;;6112291;23;20670;-82
2024/04/03 11:56:16;;;;;;;1.40;0.90;;;18.00;52.80;;;;;;6112791;23;20152;-82
2024/04/03 11:58:46;;;;;;;1.17;0.70;;;17.90;52.70;;;;;;6111557;23;20159;-81
2024/04/03 12:01:13;;;;;;;1.00;0.70;;;17.90;52.50;;;;;;6111594;23;20610;-82
2024/04/03 12:03:42;;;;;;;1.65;0.70;;;17.90;52.30;;;;;;6112543;23;20187;-81
2024/04/03 12:06:09;;;;;;;2.10;0.70;;;18.00;52.70;;;;;;6167582;23;20155;-82
2024/04/03 12:08:38;;;;;;;2.15;0.90;;;18.00;52.50;;;;;;6119032;23;20177;-81
2024/04/03 12:11:06;;;;;;;1.00;0.70;;;18.00;52.60;;;;;;6143688;23;20190;-82
2024/04/03 12:13:34;;;;;;;0.68;0.60;;;18.00;52.10;;;;;;6169952;23;20415;-82
2024/04/03 12:16:11;;;;;;;1.13;0.88;;;18.00;52.10;;;;;;6095368;23;20159;-82
2024/04/03 12:18:48;;;;;;;1.17;0.60;;;18.00;52.70;;;;;;6095866;23;20178;-82
2024/04/03 12:21:18;;;;;;;0.85;0.85;;;18.00;52.10;;;;;;6124031;23;20194;-82
2024/04/03 12:23:48;;;;;;;0.70;0.63;;;18.00;52.30;;;;;;6120257;23;20179;-82
2024/04/03 12:26:13;;;;;;;0.93;0.70;;;18.00;52.30;;;;;;6144336;23;20151;-82
2024/04/03 12:28:43;;;;;;;1.50;0.85;;;18.10;51.80;;;;;;6170928;23;20132;-82
2024/04/03 12:31:09;;;;;;;3.28;0.73;;;18.10;52.60;;;;;;6123432;23;20148;-82
2024/04/03 12:33:37;;;;;;;1.08;0.85;;;18.00;52.90;;;;;;6170684;23;20143;-82
2024/04/03 12:36:08;;;;;;;0.80;0.80;;;18.00;52.50;;;;;;6121597;23;20148;-82
2024/04/03 12:38:55;;;;;;;1.08;0.70;;;18.00;51.60;;;;;;6146928;23;20127;-82
2024/04/03 12:41:22;;;;;;;1.58;0.80;;;18.00;52.80;;;;;;6130725;23;20158;-82
2024/04/03 12:43:49;;;;;;;0.82;0.73;;;18.00;52.20;;;;;;6123536;23;20195;-81
2024/04/03 12:46:14;;;;;;;1.33;0.68;;;18.00;52.20;;;;;;6124043;23;20215;-81
2024/04/03 12:48:41;;;;;;;2.67;0.70;;;18.00;52.60;;;;;;6123826;23;20650;-81
2024/04/03 12:51:09;;;;;;;0.70;0.70;;;18.00;52.90;;;;;;6150348;23;20151;-81
2024/04/03 12:53:40;;;;;;;0.85;0.50;;;18.10;52.40;;;;;;6123710;23;20167;-81